createdAt,value
2023-05-16T00:01:12.787Z,15.95
2023-05-16T00:06:15.636Z,16.13
2023-05-16T00:11:18.105Z,22.35
2023-05-16T00:16:21.689Z,15.23
2023-05-16T00:21:24.930Z,13.40
2023-05-16T00:26:27.021Z,15.68
2023-05-16T00:31:29.189Z,15.13
2023-05-16T00:36:31.690Z,18.33
2023-05-16T00:41:34.378Z,25.77
2023-05-16T00:46:36.551Z,17.55
2023-05-16T00:51:39.388Z,19.77
2023-05-16T00:56:41.449Z,12.07
2023-05-16T01:01:46.883Z,20.15
2023-05-16T01:06:49.118Z,15.02
2023-05-16T01:12:03.765Z,14.93
2023-05-16T01:17:21.299Z,17.33
2023-05-16T01:22:33.442Z,15.00
2023-05-16T01:27:36.463Z,14.18
2023-05-16T01:32:40.410Z,12.98
2023-05-16T01:38:02.855Z,14.13
2023-05-16T01:43:10.955Z,13.30
2023-05-16T01:48:26.775Z,19.75
2023-05-16T01:53:36.740Z,15.35
2023-05-16T01:58:39.518Z,13.25
2023-05-16T02:03:41.684Z,12.73
2023-05-16T02:08:43.946Z,11.43
2023-05-16T02:13:46.104Z,18.92
2023-05-16T02:18:48.406Z,19.98
2023-05-16T02:23:50.650Z,19.52
2023-05-16T02:28:52.857Z,10.73
2023-05-16T02:33:54.942Z,15.80
2023-05-16T02:38:57.038Z,15.48
2023-05-16T02:43:59.086Z,15.65
2023-05-16T02:49:01.822Z,21.65
2023-05-16T02:54:04.200Z,17.48
2023-05-16T02:59:06.405Z,10.10
2023-05-16T03:04:08.743Z,13.88
2023-05-16T03:09:11.067Z,14.80
2023-05-16T03:14:13.197Z,15.13
2023-05-16T03:19:15.478Z,12.73
2023-05-16T03:24:17.561Z,12.98
2023-05-16T03:29:19.826Z,13.57
2023-05-16T03:34:21.978Z,16.77
2023-05-16T03:39:24.181Z,14.65
2023-05-16T03:44:26.240Z,14.02
2023-05-16T03:49:28.513Z,15.88
2023-05-16T03:54:30.757Z,16.50
2023-05-16T03:59:34.679Z,13.27
2023-05-16T04:04:36.948Z,11.55
2023-05-16T04:09:40.409Z,12.90
2023-05-16T04:14:42.887Z,14.07
2023-05-16T04:19:45.293Z,12.95
2023-05-16T04:24:47.560Z,12.85
2023-05-16T04:29:49.672Z,20.95
2023-05-16T04:34:54.223Z,10.25
2023-05-16T04:39:56.269Z,14.77
2023-05-16T04:44:58.700Z,10.18
2023-05-16T04:50:01.076Z,15.57
2023-05-16T04:55:03.424Z,15.65
2023-05-16T05:00:11.932Z,11.40
2023-05-16T05:05:14.234Z,18.98
2023-05-16T05:10:16.367Z,15.43
2023-05-16T05:15:19.157Z,15.80
2023-05-16T05:20:21.570Z,17.80
2023-05-16T05:25:23.689Z,16.00
2023-05-16T05:30:25.821Z,12.55
2023-05-16T05:35:28.336Z,15.05
2023-05-16T05:40:31.026Z,11.40
2023-05-16T05:45:33.378Z,8.75
2023-05-16T05:50:35.626Z,11.38
2023-05-16T05:55:37.828Z,10.40
2023-05-16T06:00:39.937Z,10.77
2023-05-16T06:05:42.229Z,8.90
2023-05-16T06:10:44.408Z,13.10
2023-05-16T06:15:53.420Z,13.10
2023-05-16T06:20:55.504Z,10.05
2023-05-16T06:25:57.685Z,11.30
2023-05-16T06:31:00.107Z,9.55
2023-05-16T06:36:02.289Z,11.18
2023-05-16T06:41:04.419Z,11.45
2023-05-16T06:46:06.751Z,13.05
2023-05-16T06:51:08.941Z,9.95
2023-05-16T06:56:11.158Z,16.50
2023-05-16T07:01:13.415Z,9.30
2023-05-16T07:06:15.687Z,9.68
2023-05-16T07:11:17.909Z,13.80
2023-05-16T07:16:20.201Z,9.10
2023-05-16T07:21:22.375Z,9.95
2023-05-16T07:26:24.648Z,7.20
2023-05-16T07:31:26.907Z,11.10
2023-05-16T07:36:29.161Z,7.55
2023-05-16T07:41:31.403Z,11.18
2023-05-16T07:46:33.723Z,5.57
2023-05-16T07:51:36.791Z,10.30
2023-05-16T07:56:39.156Z,6.53
2023-05-16T08:01:41.427Z,9.13
2023-05-16T08:06:43.606Z,8.30
2023-05-16T08:11:46.407Z,7.35
2023-05-16T08:16:49.365Z,8.68
2023-05-16T08:21:52.051Z,7.78
2023-05-16T08:26:54.493Z,5.47
2023-05-16T08:31:57.000Z,8.82
2023-05-16T08:37:00.327Z,5.93
2023-05-16T08:42:05.366Z,4.97
2023-05-16T08:47:13.920Z,11.63
2023-05-16T08:52:19.438Z,8.25
2023-05-16T08:57:21.961Z,3.67
2023-05-16T09:02:24.405Z,9.70
2023-05-16T09:07:26.594Z,6.25
2023-05-16T09:12:28.937Z,4.97
2023-05-16T09:17:41.566Z,5.32
2023-05-16T09:23:10.411Z,7.68
2023-05-16T09:28:12.635Z,4.43
2023-05-16T09:33:15.620Z,3.97
2023-05-16T09:38:17.971Z,3.95
2023-05-16T09:43:23.465Z,6.13
2023-05-16T09:48:28.473Z,2.90
2023-05-16T09:53:34.760Z,6.93
2023-05-16T09:58:39.305Z,6.43
2023-05-16T10:03:44.090Z,8.18
2023-05-16T10:08:47.963Z,5.07
2023-05-16T10:13:53.173Z,7.55
2023-05-16T10:18:56.362Z,4.93
2023-05-16T10:24:03.157Z,5.10
2023-05-16T10:29:06.093Z,4.28
2023-05-16T10:34:08.215Z,5.32
2023-05-16T10:39:12.057Z,5.28
2023-05-16T10:44:18.271Z,7.30
2023-05-16T10:49:22.817Z,7.10
2023-05-16T10:54:34.998Z,7.28
2023-05-16T10:59:58.906Z,6.93
2023-05-16T11:05:02.824Z,6.15
2023-05-16T11:10:16.170Z,4.35
2023-05-16T11:15:28.432Z,4.78
2023-05-16T11:20:32.654Z,5.80
2023-05-16T11:25:41.417Z,5.68
2023-05-16T11:30:46.201Z,4.55
2023-05-16T11:36:14.606Z,8.10
2023-05-16T11:41:18.717Z,2.78
2023-05-16T11:46:21.051Z,3.05
2023-05-16T11:51:23.544Z,4.05
2023-05-16T11:56:27.645Z,5.70
2023-05-16T12:01:39.985Z,4.32
2023-05-16T12:06:47.728Z,5.80
2023-05-16T12:11:56.319Z,5.85
2023-05-16T12:16:59.084Z,3.50
2023-05-16T12:22:01.766Z,4.65
2023-05-16T12:27:04.220Z,5.70
2023-05-16T12:32:08.179Z,4.93
2023-05-16T12:37:10.451Z,4.03
2023-05-16T12:42:13.687Z,4.90
2023-05-16T12:47:18.181Z,7.13
2023-05-16T12:52:21.742Z,5.88
2023-05-16T12:57:23.928Z,10.43
2023-05-16T13:02:26.333Z,7.65
2023-05-16T13:07:28.706Z,6.75
2023-05-16T13:12:31.110Z,9.07
2023-05-16T13:17:37.834Z,3.28
2023-05-16T13:22:44.017Z,3.75
2023-05-16T13:27:46.411Z,5.63
2023-05-16T13:32:48.726Z,3.28
2023-05-16T13:37:51.518Z,4.05
2023-05-16T13:42:53.836Z,4.13
2023-05-16T13:47:56.076Z,4.60
2023-05-16T13:52:58.324Z,5.20
2023-05-16T13:58:00.770Z,5.60
2023-05-16T14:03:03.144Z,6.40
2023-05-16T14:08:05.564Z,3.53
2023-05-16T14:13:07.877Z,5.70
2023-05-16T14:18:10.078Z,5.03
2023-05-16T14:23:12.198Z,6.80
2023-05-16T14:28:14.344Z,7.55
2023-05-16T14:33:17.054Z,8.80
2023-05-16T14:38:19.860Z,5.70
2023-05-16T14:43:24.617Z,7.90
2023-05-16T14:48:26.824Z,3.20
2023-05-16T14:53:28.976Z,6.28
2023-05-16T14:58:31.265Z,5.10
2023-05-16T15:03:43.266Z,5.25
2023-05-16T15:08:53.470Z,3.53
2023-05-16T15:13:57.323Z,5.97
2023-05-16T15:18:59.686Z,3.78
2023-05-16T15:24:28.164Z,5.70
2023-05-16T15:29:30.839Z,4.25
2023-05-16T15:34:58.361Z,6.30
2023-05-16T15:40:00.539Z,5.75
2023-05-16T15:45:03.101Z,7.60
2023-05-16T15:50:05.575Z,4.93
2023-05-16T15:55:08.129Z,4.07
2023-05-16T16:00:11.136Z,5.18
2023-05-16T16:05:16.379Z,4.28
2023-05-16T16:10:19.491Z,4.90
2023-05-16T16:15:22.651Z,4.03
2023-05-16T16:20:49.651Z,5.18
2023-05-16T16:25:52.054Z,5.57
2023-05-16T16:30:56.488Z,5.05
2023-05-16T16:35:59.324Z,4.07
2023-05-16T16:41:06.700Z,5.07
2023-05-16T16:46:09.112Z,4.70
2023-05-16T16:51:12.292Z,7.57
2023-05-16T16:56:14.617Z,4.95
2023-05-16T17:01:18.256Z,5.75
2023-05-16T17:06:20.548Z,3.13
2023-05-16T17:11:23.535Z,5.45
2023-05-16T17:16:30.536Z,7.32
2023-05-16T17:21:37.132Z,5.87
2023-05-16T17:26:39.796Z,6.28
2023-05-16T17:31:46.706Z,4.65
2023-05-16T17:36:49.622Z,10.00
2023-05-16T17:41:54.994Z,7.53
2023-05-16T17:46:57.501Z,8.35
2023-05-16T17:52:00.708Z,5.55
2023-05-16T17:57:04.231Z,5.18
2023-05-16T18:02:09.834Z,8.23
2023-05-16T18:07:12.137Z,5.78
2023-05-16T18:12:15.886Z,6.55
2023-05-16T18:17:18.376Z,6.68
2023-05-16T18:22:21.031Z,6.85
2023-05-16T18:27:23.245Z,7.00
2023-05-16T18:32:25.626Z,7.32
2023-05-16T18:37:27.895Z,6.40
2023-05-16T18:42:30.423Z,11.50
2023-05-16T18:47:33.372Z,9.50
2023-05-16T18:52:38.185Z,6.97
2023-05-16T18:57:40.580Z,10.43
2023-05-16T19:02:43.005Z,10.63
2023-05-16T19:07:45.419Z,11.35
2023-05-16T19:12:49.034Z,9.50
2023-05-16T19:17:51.417Z,10.45
2023-05-16T19:22:56.093Z,11.20
2023-05-16T19:27:58.373Z,7.35
2023-05-16T19:33:00.742Z,9.82
2023-05-16T19:38:02.945Z,10.48
2023-05-16T19:43:05.011Z,9.93
2023-05-16T19:48:08.684Z,6.35
2023-05-16T19:53:11.141Z,10.75
2023-05-16T19:58:13.405Z,7.22
2023-05-16T20:03:15.966Z,9.57
2023-05-16T20:08:18.149Z,6.85
2023-05-16T20:13:20.863Z,8.48
2023-05-16T20:18:23.047Z,11.18
2023-05-16T20:23:25.194Z,8.82
2023-05-16T20:28:27.385Z,12.88
2023-05-16T20:33:29.785Z,12.82
2023-05-16T20:38:31.996Z,8.43
2023-05-16T20:43:34.109Z,9.23
2023-05-16T20:48:36.306Z,9.10
2023-05-16T20:53:38.715Z,10.93
2023-05-16T20:58:42.058Z,9.38
2023-05-16T21:03:44.356Z,15.25
2023-05-16T21:08:46.422Z,20.02
2023-05-16T21:13:48.969Z,9.80
2023-05-16T21:18:51.323Z,10.32
2023-05-16T21:23:53.676Z,6.95
2023-05-16T21:28:56.221Z,11.95
2023-05-16T21:33:58.546Z,14.55
2023-05-16T21:39:01.006Z,13.07
2023-05-16T21:44:03.255Z,14.40
2023-05-16T21:49:05.444Z,15.10
2023-05-16T21:54:07.668Z,12.57
2023-05-16T21:59:09.800Z,11.82
2023-05-16T22:04:12.022Z,9.68
2023-05-16T22:09:14.370Z,14.90
2023-05-16T22:14:16.520Z,14.95
2023-05-16T22:19:18.627Z,10.38
2023-05-16T22:24:20.749Z,17.55
2023-05-16T22:29:22.863Z,18.20
2023-05-16T22:34:24.898Z,10.77
2023-05-16T22:39:26.975Z,9.88
2023-05-16T22:44:29.576Z,13.23
2023-05-16T22:49:31.685Z,11.57
2023-05-16T22:54:33.811Z,8.98
2023-05-16T22:59:36.104Z,11.50
2023-05-16T23:04:38.421Z,16.33
2023-05-16T23:09:40.817Z,10.00
2023-05-16T23:14:43.084Z,17.92
2023-05-16T23:19:45.345Z,12.30
2023-05-16T23:24:47.565Z,11.48
2023-05-16T23:29:49.823Z,12.45
2023-05-16T23:34:51.940Z,13.60
2023-05-16T23:39:54.301Z,10.57
2023-05-16T23:44:56.536Z,13.25
2023-05-16T23:49:58.848Z,8.60
2023-05-16T23:55:01.774Z,12.57
